createdAt,value
2023-02-28T00:00:39.926Z,1024.78
2023-02-28T00:01:39.917Z,1024.81
2023-02-28T00:02:39.909Z,1024.79
2023-02-28T00:03:39.995Z,1024.78
2023-02-28T00:04:39.893Z,1024.78
2023-02-28T00:05:39.889Z,1024.80
2023-02-28T00:06:39.882Z,1024.78
2023-02-28T00:07:39.873Z,1024.75
2023-02-28T00:08:39.863Z,1024.76
2023-02-28T00:09:39.859Z,1024.76
2023-02-28T00:10:39.845Z,1024.79
2023-02-28T00:11:39.849Z,1024.76
2023-02-28T00:12:39.832Z,1024.75
2023-02-28T00:13:39.843Z,1024.76
2023-02-28T00:14:39.828Z,1024.75
2023-02-28T00:15:39.806Z,1024.76
2023-02-28T00:16:39.875Z,1024.71
2023-02-28T00:17:39.816Z,1024.76
2023-02-28T00:18:39.798Z,1024.75
2023-02-28T00:19:39.775Z,1024.78
2023-02-28T00:20:39.770Z,1024.77
2023-02-28T00:21:39.762Z,1024.74
2023-02-28T00:22:39.751Z,1024.74
2023-02-28T00:23:39.742Z,1024.74
2023-02-28T00:24:39.742Z,1024.74
2023-02-28T00:25:39.729Z,1024.73
2023-02-28T00:26:39.720Z,1024.77
2023-02-28T00:27:39.712Z,1024.71
2023-02-28T00:28:39.702Z,1024.74
2023-02-28T00:29:39.726Z,1024.71
2023-02-28T00:30:39.713Z,1024.75
2023-02-28T00:31:39.681Z,1024.78
2023-02-28T00:32:39.672Z,1024.79
2023-02-28T00:33:39.659Z,1024.78
2023-02-28T00:34:39.658Z,1024.80
2023-02-28T00:35:39.666Z,1024.78
2023-02-28T00:36:39.640Z,1024.83
2023-02-28T00:37:39.637Z,1024.83
2023-02-28T00:38:39.627Z,1024.83
2023-02-28T00:39:39.631Z,1024.79
2023-02-28T00:40:39.603Z,1024.80
2023-02-28T00:41:39.595Z,1024.80
2023-02-28T00:42:39.588Z,1024.80
2023-02-28T00:43:39.582Z,1024.74
2023-02-28T00:44:39.570Z,1024.79
2023-02-28T00:45:39.578Z,1024.80
2023-02-28T00:46:39.552Z,1024.79
2023-02-28T00:47:39.546Z,1024.75
2023-02-28T00:48:39.539Z,1024.71
2023-02-28T00:49:39.532Z,1024.73
2023-02-28T00:50:39.522Z,1024.70
2023-02-28T00:51:39.513Z,1024.69
2023-02-28T00:52:39.505Z,1024.71
2023-02-28T00:53:39.501Z,1024.70
2023-02-28T00:54:39.489Z,1024.68
2023-02-28T00:55:39.477Z,1024.67
2023-02-28T00:56:39.475Z,1024.68
2023-02-28T00:57:39.463Z,1024.67
2023-02-28T00:58:39.469Z,1024.69
2023-02-28T00:59:39.458Z,1024.69
2023-02-28T01:00:39.446Z,1024.71
2023-02-28T01:01:39.517Z,1024.69
2023-02-28T01:02:39.428Z,1024.69
2023-02-28T01:03:39.417Z,1024.72
2023-02-28T01:04:39.476Z,1024.73
2023-02-28T01:05:39.400Z,1024.73
2023-02-28T01:06:39.391Z,1024.69
2023-02-28T01:07:39.393Z,1024.74
2023-02-28T01:08:39.377Z,1024.70
2023-02-28T01:09:39.368Z,1024.72
2023-02-28T01:10:39.367Z,1024.78
2023-02-28T01:11:39.352Z,1024.76
2023-02-28T01:12:39.343Z,1024.71
2023-02-28T01:13:39.337Z,1024.72
2023-02-28T01:14:39.336Z,1024.73
2023-02-28T01:15:39.424Z,1024.74
2023-02-28T01:16:39.312Z,1024.71
2023-02-28T01:17:39.325Z,1024.72
2023-02-28T01:18:39.325Z,1024.74
2023-02-28T01:19:39.291Z,1024.75
2023-02-28T01:20:39.291Z,1024.76
2023-02-28T01:21:39.273Z,1024.74
2023-02-28T01:22:39.270Z,1024.73
2023-02-28T01:23:39.253Z,1024.73
2023-02-28T01:24:39.248Z,1024.74
2023-02-28T01:25:39.284Z,1024.76
2023-02-28T01:26:39.234Z,1024.71
2023-02-28T01:27:39.221Z,1024.70
2023-02-28T01:28:39.214Z,1024.75
2023-02-28T01:29:39.206Z,1024.78
2023-02-28T01:30:39.199Z,1024.73
2023-02-28T01:31:39.259Z,1024.70
2023-02-28T01:32:39.189Z,1024.71
2023-02-28T01:33:39.199Z,1024.69
2023-02-28T01:34:39.168Z,1024.69
2023-02-28T01:35:39.324Z,1024.70
2023-02-28T01:36:39.148Z,1024.74
2023-02-28T01:37:39.142Z,1024.73
2023-02-28T01:38:39.132Z,1024.73
2023-02-28T01:39:39.121Z,1024.79
2023-02-28T01:40:39.115Z,1024.79
2023-02-28T01:41:39.104Z,1024.77
2023-02-28T01:42:39.100Z,1024.76
2023-02-28T01:43:39.088Z,1024.74
2023-02-28T01:44:39.081Z,1024.73
2023-02-28T01:45:39.075Z,1024.74
2023-02-28T01:46:39.086Z,1024.76
2023-02-28T01:47:39.060Z,1024.74
2023-02-28T01:48:39.049Z,1024.74
2023-02-28T01:49:39.057Z,1024.76
2023-02-28T01:50:39.035Z,1024.73
2023-02-28T01:51:39.023Z,1024.73
2023-02-28T01:52:39.016Z,1024.67
2023-02-28T01:53:39.005Z,1024.66
2023-02-28T01:54:39.001Z,1024.72
2023-02-28T01:55:38.988Z,1024.65
2023-02-28T01:56:38.989Z,1024.66
2023-02-28T01:57:38.972Z,1024.67
2023-02-28T01:58:38.963Z,1024.65
2023-02-28T01:59:38.957Z,1024.71
2023-02-28T02:00:38.950Z,1024.66
2023-02-28T02:01:38.964Z,1024.65
2023-02-28T02:02:38.953Z,1024.61
2023-02-28T02:03:38.939Z,1024.62
2023-02-28T02:04:38.915Z,1024.59
2023-02-28T02:05:38.924Z,1024.59
2023-02-28T02:06:38.898Z,1024.61
2023-02-28T02:07:38.893Z,1024.55
2023-02-28T02:08:38.892Z,1024.58
2023-02-28T02:09:38.876Z,1024.52
2023-02-28T02:10:38.864Z,1024.53
2023-02-28T02:11:38.858Z,1024.51
2023-02-28T02:12:38.848Z,1024.47
2023-02-28T02:13:38.855Z,1024.49
2023-02-28T02:14:38.830Z,1024.45
2023-02-28T02:15:38.820Z,1024.50
2023-02-28T02:16:38.819Z,1024.46
2023-02-28T02:17:38.807Z,1024.50
2023-02-28T02:18:38.810Z,1024.45
2023-02-28T02:19:38.792Z,1024.47
2023-02-28T02:20:38.781Z,1024.44
2023-02-28T02:21:38.789Z,1024.46
2023-02-28T02:22:38.762Z,1024.44
2023-02-28T02:23:38.759Z,1024.43
2023-02-28T02:24:38.745Z,1024.43
2023-02-28T02:25:38.737Z,1024.42
2023-02-28T02:26:38.732Z,1024.39
2023-02-28T02:27:38.718Z,1024.45
2023-02-28T02:28:38.713Z,1024.40
2023-02-28T02:29:38.701Z,1024.37
2023-02-28T02:30:38.705Z,1024.38
2023-02-28T02:31:38.759Z,1024.36
2023-02-28T02:32:38.684Z,1024.32
2023-02-28T02:33:38.667Z,1024.33
2023-02-28T02:34:38.665Z,1024.33
2023-02-28T02:35:38.685Z,1024.34
2023-02-28T02:36:38.654Z,1024.36
2023-02-28T02:37:38.656Z,1024.38
2023-02-28T02:38:38.626Z,1024.35
2023-02-28T02:39:38.627Z,1024.32
2023-02-28T02:40:38.611Z,1024.35
2023-02-28T02:41:38.598Z,1024.30
2023-02-28T02:42:38.595Z,1024.32
2023-02-28T02:43:38.589Z,1024.32
2023-02-28T02:44:38.581Z,1024.35
2023-02-28T02:45:38.566Z,1024.29
2023-02-28T02:46:38.606Z,1024.25
2023-02-28T02:47:38.549Z,1024.25
2023-02-28T02:48:38.550Z,1024.23
2023-02-28T02:49:38.533Z,1024.26
2023-02-28T02:50:38.527Z,1024.22
2023-02-28T02:51:38.515Z,1024.20
2023-02-28T02:52:38.509Z,1024.25
2023-02-28T02:53:38.518Z,1024.27
2023-02-28T02:54:38.504Z,1024.26
2023-02-28T02:55:38.482Z,1024.23
2023-02-28T02:56:38.476Z,1024.26
2023-02-28T02:57:38.467Z,1024.25
2023-02-28T02:58:38.457Z,1024.22
2023-02-28T02:59:38.457Z,1024.26
2023-02-28T03:00:38.514Z,1024.24
2023-02-28T03:01:38.433Z,1024.21
2023-02-28T03:02:38.424Z,1024.29
2023-02-28T03:03:38.447Z,1024.27
2023-02-28T03:04:38.407Z,1024.27
2023-02-28T03:05:38.398Z,1024.24
2023-02-28T03:06:38.389Z,1024.27
2023-02-28T03:07:38.390Z,1024.27
2023-02-28T03:08:38.381Z,1024.27
2023-02-28T03:09:38.584Z,1024.27
2023-02-28T03:10:38.354Z,1024.25
2023-02-28T03:11:38.345Z,1024.26
2023-02-28T03:12:38.344Z,1024.29
2023-02-28T03:13:38.336Z,1024.27
2023-02-28T03:14:38.336Z,1024.28
2023-02-28T03:15:38.312Z,1024.29
2023-02-28T03:16:38.321Z,1024.25
2023-02-28T03:17:38.303Z,1024.29
2023-02-28T03:18:38.289Z,1024.28
2023-02-28T03:19:38.292Z,1024.31
2023-02-28T03:20:38.277Z,1024.30
2023-02-28T03:21:38.262Z,1024.26
2023-02-28T03:22:38.258Z,1024.28
2023-02-28T03:23:38.257Z,1024.24
2023-02-28T03:24:38.251Z,1024.23
2023-02-28T03:25:38.252Z,1024.26
2023-02-28T03:26:38.221Z,1024.27
2023-02-28T03:27:38.232Z,1024.28
2023-02-28T03:28:38.206Z,1024.30
2023-02-28T03:29:38.199Z,1024.25
2023-02-28T03:30:38.197Z,1024.25
2023-02-28T03:31:38.222Z,1024.19
2023-02-28T03:32:38.215Z,1024.19
2023-02-28T03:33:38.163Z,1024.18
2023-02-28T03:34:38.156Z,1024.16
2023-02-28T03:35:38.192Z,1024.14
2023-02-28T03:36:38.139Z,1024.17
2023-02-28T03:37:38.133Z,1024.19
2023-02-28T03:38:38.121Z,1024.15
2023-02-28T03:39:38.114Z,1024.18
2023-02-28T03:40:38.105Z,1024.18
2023-02-28T03:41:38.121Z,1024.22
2023-02-28T03:42:38.090Z,1024.25
2023-02-28T03:43:38.081Z,1024.21
2023-02-28T03:44:38.078Z,1024.23
2023-02-28T03:45:38.100Z,1024.24
2023-02-28T03:46:38.054Z,1024.21
2023-02-28T03:47:38.069Z,1024.24
2023-02-28T03:48:38.037Z,1024.25
2023-02-28T03:49:38.031Z,1024.28
2023-02-28T03:50:38.028Z,1024.23
2023-02-28T03:51:38.015Z,1024.27
2023-02-28T03:52:38.007Z,1024.26
2023-02-28T03:53:37.992Z,1024.30
2023-02-28T03:54:37.987Z,1024.32
2023-02-28T03:55:37.983Z,1024.26
2023-02-28T03:56:37.968Z,1024.30
2023-02-28T03:57:37.989Z,1024.29
2023-02-28T03:58:37.953Z,1024.27
2023-02-28T03:59:37.946Z,1024.32
2023-02-28T04:00:37.939Z,1024.28
2023-02-28T04:01:38.004Z,1024.31
2023-02-28T04:02:37.920Z,1024.31
2023-02-28T04:03:37.916Z,1024.34
2023-02-28T04:04:38.028Z,1024.31
2023-02-28T04:05:37.889Z,1024.29
2023-02-28T04:06:37.889Z,1024.29
2023-02-28T04:07:37.875Z,1024.31
2023-02-28T04:08:37.876Z,1024.33
2023-02-28T04:09:37.862Z,1024.30
2023-02-28T04:10:37.852Z,1024.33
2023-02-28T04:11:37.848Z,1024.37
2023-02-28T04:12:37.832Z,1024.34
2023-02-28T04:13:37.848Z,1024.37
2023-02-28T04:14:38.320Z,1024.34
2023-02-28T04:15:37.874Z,1024.31
2023-02-28T04:16:37.838Z,1024.34
2023-02-28T04:17:37.798Z,1024.38
2023-02-28T04:18:37.810Z,1024.35
2023-02-28T04:19:37.772Z,1024.38
2023-02-28T04:20:37.765Z,1024.35
2023-02-28T04:21:37.758Z,1024.36
2023-02-28T04:22:37.747Z,1024.42
2023-02-28T04:23:37.739Z,1024.35
2023-02-28T04:24:37.735Z,1024.37
2023-02-28T04:25:37.722Z,1024.40
2023-02-28T04:26:37.730Z,1024.39
2023-02-28T04:27:37.704Z,1024.40
2023-02-28T04:28:37.699Z,1024.41
2023-02-28T04:29:37.705Z,1024.41
2023-02-28T04:30:37.686Z,1024.44
2023-02-28T04:31:37.706Z,1024.45
2023-02-28T04:32:37.730Z,1024.45
2023-02-28T04:33:37.656Z,1024.44
2023-02-28T04:34:37.650Z,1024.42
2023-02-28T04:35:37.658Z,1024.45
2023-02-28T04:36:37.631Z,1024.44
2023-02-28T04:37:37.621Z,1024.43
2023-02-28T04:38:37.615Z,1024.47
2023-02-28T04:39:37.605Z,1024.49
2023-02-28T04:40:37.597Z,1024.47
2023-02-28T04:41:37.592Z,1024.52
2023-02-28T04:42:37.580Z,1024.55
2023-02-28T04:43:37.581Z,1024.52
2023-02-28T04:44:37.562Z,1024.49
2023-02-28T04:45:37.631Z,1024.48
2023-02-28T04:46:37.552Z,1024.48
2023-02-28T04:47:37.539Z,1024.45
2023-02-28T04:48:37.527Z,1024.43
2023-02-28T04:49:37.527Z,1024.47
2023-02-28T04:50:37.510Z,1024.45
2023-02-28T04:51:37.507Z,1024.50
2023-02-28T04:52:37.490Z,1024.52
2023-02-28T04:53:37.483Z,1024.51
2023-02-28T04:54:37.473Z,1024.51
2023-02-28T04:55:37.470Z,1024.50
2023-02-28T04:56:37.457Z,1024.49
2023-02-28T04:57:37.448Z,1024.50
2023-02-28T04:58:37.451Z,1024.50
2023-02-28T04:59:37.434Z,1024.53
2023-02-28T05:00:37.432Z,1024.50
2023-02-28T05:01:37.451Z,1024.49
2023-02-28T05:02:37.445Z,1024.53
2023-02-28T05:03:37.402Z,1024.53
2023-02-28T05:04:37.441Z,1024.51
2023-02-28T05:05:37.387Z,1024.51
2023-02-28T05:06:37.374Z,1024.55
2023-02-28T05:07:37.373Z,1024.53
2023-02-28T05:08:37.384Z,1024.54
2023-02-28T05:09:37.349Z,1024.55
2023-02-28T05:10:37.344Z,1024.55
2023-02-28T05:11:37.329Z,1024.50
2023-02-28T05:12:37.318Z,1024.53
2023-02-28T05:13:37.318Z,1024.49
2023-02-28T05:14:37.307Z,1024.52
2023-02-28T05:15:37.295Z,1024.55
2023-02-28T05:16:37.292Z,1024.54
2023-02-28T05:17:37.297Z,1024.49
2023-02-28T05:18:37.280Z,1024.53
2023-02-28T05:19:37.411Z,1024.48
2023-02-28T05:20:37.256Z,1024.48
2023-02-28T05:21:37.262Z,1024.50
2023-02-28T05:22:37.233Z,1024.50
2023-02-28T05:23:37.231Z,1024.50
2023-02-28T05:24:37.223Z,1024.50
2023-02-28T05:25:37.211Z,1024.49
2023-02-28T05:26:37.207Z,1024.51
2023-02-28T05:27:37.191Z,1024.54
2023-02-28T05:28:37.184Z,1024.53
2023-02-28T05:29:37.174Z,1024.48
2023-02-28T05:30:37.169Z,1024.51
2023-02-28T05:31:37.194Z,1024.53
2023-02-28T05:32:37.179Z,1024.59
2023-02-28T05:33:37.159Z,1024.56
2023-02-28T05:34:37.129Z,1024.57
2023-02-28T05:35:37.144Z,1024.61
2023-02-28T05:36:37.138Z,1024.56
2023-02-28T05:37:37.108Z,1024.57
2023-02-28T05:38:38.882Z,1024.57
2023-02-28T05:39:37.089Z,1024.62
2023-02-28T05:40:37.081Z,1024.59
2023-02-28T05:41:37.073Z,1024.62
2023-02-28T05:42:37.062Z,1024.64
2023-02-28T05:43:37.070Z,1024.65
2023-02-28T05:44:37.048Z,1024.66
2023-02-28T05:45:37.079Z,1024.68
2023-02-28T05:46:37.037Z,1024.66
2023-02-28T05:47:37.024Z,1024.65
2023-02-28T05:48:37.047Z,1024.63
2023-02-28T05:49:37.023Z,1024.62
2023-02-28T05:50:37.019Z,1024.64
2023-02-28T05:51:36.993Z,1024.67
2023-02-28T05:52:36.983Z,1024.68
2023-02-28T05:53:36.985Z,1024.67
2023-02-28T05:54:36.961Z,1024.67
2023-02-28T05:55:36.995Z,1024.69
2023-02-28T05:56:36.946Z,1024.70
2023-02-28T05:57:36.938Z,1024.69
2023-02-28T05:58:36.929Z,1024.72
2023-02-28T05:59:36.924Z,1024.70
2023-02-28T06:00:36.912Z,1024.72
2023-02-28T06:01:36.969Z,1024.72
2023-02-28T06:02:36.938Z,1024.74
2023-02-28T06:03:36.928Z,1024.75
2023-02-28T06:04:36.877Z,1024.75
2023-02-28T06:05:36.908Z,1024.75
2023-02-28T06:06:37.289Z,1024.78
2023-02-28T06:07:36.855Z,1024.82
2023-02-28T06:08:36.847Z,1024.80
2023-02-28T06:09:36.843Z,1024.80
2023-02-28T06:10:36.829Z,1024.84
2023-02-28T06:11:36.819Z,1024.82
2023-02-28T06:12:36.815Z,1024.87
2023-02-28T06:13:36.805Z,1024.91
2023-02-28T06:14:36.793Z,1024.86
2023-02-28T06:15:36.786Z,1024.84
2023-02-28T06:16:36.830Z,1024.85
2023-02-28T06:17:36.768Z,1024.86
2023-02-28T06:18:36.759Z,1024.89
2023-02-28T06:19:36.752Z,1024.89
2023-02-28T06:20:36.744Z,1024.90
2023-02-28T06:21:36.757Z,1024.92
2023-02-28T06:22:36.729Z,1024.90
2023-02-28T06:23:36.721Z,1024.92
2023-02-28T06:24:36.710Z,1024.95
2023-02-28T06:25:36.699Z,1025.00
2023-02-28T06:26:36.702Z,1024.97
2023-02-28T06:27:36.686Z,1025.00
2023-02-28T06:28:36.684Z,1025.01
2023-02-28T06:29:36.699Z,1024.95
2023-02-28T06:30:36.665Z,1024.99
2023-02-28T06:31:36.733Z,1024.98
2023-02-28T06:32:36.645Z,1025.01
2023-02-28T06:33:36.631Z,1025.01
2023-02-28T06:34:36.648Z,1025.04
2023-02-28T06:35:36.665Z,1025.04
2023-02-28T06:36:36.610Z,1025.06
2023-02-28T06:37:36.621Z,1025.08
2023-02-28T06:38:36.599Z,1025.10
2023-02-28T06:39:36.583Z,1025.10
2023-02-28T06:40:36.572Z,1025.07
2023-02-28T06:41:52.010Z,1025.12
2023-02-28T06:42:36.556Z,1025.12
2023-02-28T06:43:36.556Z,1025.13
2023-02-28T06:44:36.667Z,1025.10
2023-02-28T06:45:36.542Z,1025.16
2023-02-28T06:46:36.548Z,1025.14
2023-02-28T06:47:36.523Z,1025.17
2023-02-28T06:48:36.510Z,1025.14
2023-02-28T06:49:36.537Z,1025.16
2023-02-28T06:50:36.489Z,1025.16
2023-02-28T06:51:36.484Z,1025.18
2023-02-28T06:52:36.468Z,1025.19
2023-02-28T06:53:36.531Z,1025.20
2023-02-28T06:54:36.452Z,1025.22
2023-02-28T06:55:36.441Z,1025.20
2023-02-28T06:56:36.436Z,1025.24
2023-02-28T06:57:36.428Z,1025.20
2023-02-28T06:58:36.423Z,1025.19
2023-02-28T06:59:36.408Z,1025.23
2023-02-28T07:00:36.408Z,1025.21
2023-02-28T07:01:36.522Z,1025.22
2023-02-28T07:02:36.387Z,1025.28
2023-02-28T07:03:36.387Z,1025.26
2023-02-28T07:04:36.411Z,1025.26
2023-02-28T07:05:36.354Z,1025.27
2023-02-28T07:06:36.359Z,1025.26
2023-02-28T07:07:36.352Z,1025.27
2023-02-28T07:08:36.326Z,1025.30
2023-02-28T07:09:36.339Z,1025.30
2023-02-28T07:10:36.308Z,1025.30
2023-02-28T07:11:36.301Z,1025.33
2023-02-28T07:12:36.297Z,1025.32
2023-02-28T07:13:36.280Z,1025.33
2023-02-28T07:14:36.274Z,1025.35
2023-02-28T07:15:39.757Z,1025.34
2023-02-28T07:16:36.271Z,1025.34
2023-02-28T07:17:36.249Z,1025.34
2023-02-28T07:18:36.255Z,1025.38
2023-02-28T07:19:36.239Z,1025.34
2023-02-28T07:20:36.221Z,1025.31
2023-02-28T07:21:36.216Z,1025.33
2023-02-28T07:22:36.211Z,1025.33
2023-02-28T07:23:36.196Z,1025.34
2023-02-28T07:24:36.195Z,1025.36
2023-02-28T07:25:36.196Z,1025.36
2023-02-28T07:26:36.206Z,1025.38
2023-02-28T07:27:36.164Z,1025.39
2023-02-28T07:28:36.151Z,1025.38
2023-02-28T07:29:36.155Z,1025.41
2023-02-28T07:30:36.144Z,1025.40
2023-02-28T07:31:36.188Z,1025.41
2023-02-28T07:32:36.115Z,1025.43
2023-02-28T07:33:36.108Z,1025.46
2023-02-28T07:34:36.100Z,1025.43
2023-02-28T07:35:36.135Z,1025.46
2023-02-28T07:36:36.086Z,1025.47
2023-02-28T07:37:36.079Z,1025.42
2023-02-28T07:38:36.074Z,1025.49
2023-02-28T07:39:36.075Z,1025.44
2023-02-28T07:40:36.052Z,1025.48
2023-02-28T07:41:36.065Z,1025.45
2023-02-28T07:42:36.042Z,1025.51
2023-02-28T07:43:36.045Z,1025.51
2023-02-28T07:44:36.023Z,1025.55
2023-02-28T07:45:36.020Z,1025.53
2023-02-28T07:46:36.657Z,1025.51
2023-02-28T07:47:35.996Z,1025.46
2023-02-28T07:48:35.982Z,1025.52
2023-02-28T07:49:35.977Z,1025.54
2023-02-28T07:50:36.032Z,1025.54
2023-02-28T07:51:35.963Z,1025.60
2023-02-28T07:52:35.954Z,1025.57
2023-02-28T07:53:35.950Z,1025.57
2023-02-28T07:54:35.937Z,1025.59
2023-02-28T07:55:35.928Z,1025.58
2023-02-28T07:56:35.921Z,1025.61
2023-02-28T07:57:35.947Z,1025.65
2023-02-28T07:58:35.902Z,1025.69
2023-02-28T07:59:35.905Z,1025.67
2023-02-28T08:00:35.912Z,1025.66
2023-02-28T08:01:35.916Z,1025.66
2023-02-28T08:02:35.871Z,1025.68
2023-02-28T08:03:35.861Z,1025.67
2023-02-28T08:04:35.898Z,1025.67
2023-02-28T08:05:35.845Z,1025.79
2023-02-28T08:06:35.849Z,1025.78
2023-02-28T08:07:35.841Z,1025.77
2023-02-28T08:08:35.821Z,1025.76
2023-02-28T08:09:35.813Z,1025.72
2023-02-28T08:10:35.805Z,1025.68
2023-02-28T08:11:35.797Z,1025.69
2023-02-28T08:12:35.789Z,1025.70
2023-02-28T08:13:35.814Z,1025.71
2023-02-28T08:14:35.772Z,1025.75
2023-02-28T08:15:35.771Z,1025.77
2023-02-28T08:16:35.807Z,1025.73
2023-02-28T08:17:35.755Z,1025.75
2023-02-28T08:18:35.738Z,1025.72
2023-02-28T08:19:35.741Z,1025.73
2023-02-28T08:20:35.723Z,1025.73
2023-02-28T08:21:35.714Z,1025.76
2023-02-28T08:22:35.709Z,1025.71
2023-02-28T08:23:35.701Z,1025.71
2023-02-28T08:24:35.696Z,1025.69
2023-02-28T08:25:35.687Z,1025.72
2023-02-28T08:26:35.675Z,1025.72
2023-02-28T08:27:35.674Z,1025.69
2023-02-28T08:28:35.661Z,1025.69
2023-02-28T08:29:35.673Z,1025.74
2023-02-28T08:30:35.643Z,1025.71
2023-02-28T08:31:35.713Z,1025.74
2023-02-28T08:32:35.710Z,1025.71
2023-02-28T08:33:35.621Z,1025.71
2023-02-28T08:34:35.610Z,1025.73
2023-02-28T08:35:35.627Z,1025.74
2023-02-28T08:36:35.690Z,1025.74
2023-02-28T08:37:35.588Z,1025.75
2023-02-28T08:38:35.584Z,1025.67
2023-02-28T08:39:35.583Z,1025.69
2023-02-28T08:40:35.569Z,1025.68
2023-02-28T08:41:35.566Z,1025.66
2023-02-28T08:42:35.550Z,1025.68
2023-02-28T08:43:35.554Z,1025.70
2023-02-28T08:44:35.533Z,1025.71
2023-02-28T08:45:35.594Z,1025.73
2023-02-28T08:46:35.520Z,1025.69
2023-02-28T08:47:35.524Z,1025.68
2023-02-28T08:48:35.518Z,1025.68
2023-02-28T08:49:35.511Z,1025.68
2023-02-28T08:50:35.488Z,1025.70
2023-02-28T08:51:35.486Z,1025.65
2023-02-28T08:52:35.470Z,1025.64
2023-02-28T08:53:35.459Z,1025.63
2023-02-28T08:54:35.458Z,1025.68
2023-02-28T08:55:35.448Z,1025.65
2023-02-28T08:56:35.443Z,1025.68
2023-02-28T08:57:35.438Z,1025.59
2023-02-28T08:58:35.418Z,1025.61
2023-02-28T08:59:35.412Z,1025.59
2023-02-28T09:00:35.425Z,1025.61
2023-02-28T09:01:35.450Z,1025.63
2023-02-28T09:02:35.391Z,1025.66
2023-02-28T09:03:35.422Z,1025.69
2023-02-28T09:04:35.376Z,1025.68
2023-02-28T09:05:35.365Z,1025.67
2023-02-28T09:06:35.363Z,1025.65
2023-02-28T09:07:35.352Z,1025.69
2023-02-28T09:08:35.344Z,1025.68
2023-02-28T09:09:35.335Z,1025.62
2023-02-28T09:10:35.328Z,1025.62
2023-02-28T09:11:35.321Z,1025.63
2023-02-28T09:12:35.313Z,1025.64
2023-02-28T09:13:35.302Z,1025.67
2023-02-28T09:14:35.297Z,1025.65
2023-02-28T09:15:35.292Z,1025.56
2023-02-28T09:16:35.564Z,1025.55
2023-02-28T09:17:35.298Z,1025.56
2023-02-28T09:18:35.265Z,1025.57
2023-02-28T09:19:35.262Z,1025.53
2023-02-28T09:20:35.251Z,1025.51
2023-02-28T09:21:35.248Z,1025.50
2023-02-28T09:22:35.238Z,1025.47
2023-02-28T09:23:35.224Z,1025.51
2023-02-28T09:24:35.220Z,1025.51
2023-02-28T09:25:35.209Z,1025.54
2023-02-28T09:26:42.673Z,1025.52
2023-02-28T09:27:35.199Z,1025.46
2023-02-28T09:28:35.190Z,1025.47
2023-02-28T09:29:35.198Z,1025.50
2023-02-28T09:30:35.229Z,1025.50
2023-02-28T09:31:35.164Z,1025.51
2023-02-28T09:32:35.157Z,1025.51
2023-02-28T09:33:35.185Z,1025.51
2023-02-28T09:34:35.210Z,1025.46
2023-02-28T09:35:35.136Z,1025.45
2023-02-28T09:36:44.733Z,1025.46
2023-02-28T09:37:35.119Z,1025.46
2023-02-28T09:38:35.117Z,1025.47
2023-02-28T09:39:35.104Z,1025.49
2023-02-28T09:40:35.098Z,1025.43
2023-02-28T09:41:35.088Z,1025.54
2023-02-28T09:42:35.085Z,1025.49
2023-02-28T09:43:35.080Z,1025.49
2023-02-28T09:44:35.085Z,1025.44
2023-02-28T09:45:35.077Z,1025.41
2023-02-28T09:46:35.654Z,1025.42
2023-02-28T09:47:35.061Z,1025.47
2023-02-28T09:48:35.239Z,1025.45
2023-02-28T09:49:35.048Z,1025.41
2023-02-28T09:50:35.019Z,1025.44
2023-02-28T09:51:35.010Z,1025.41
2023-02-28T09:52:35.009Z,1025.37
2023-02-28T09:53:34.999Z,1025.44
2023-02-28T09:54:34.987Z,1025.36
2023-02-28T09:55:41.558Z,1025.34
2023-02-28T09:56:34.978Z,1025.32
2023-02-28T09:57:34.963Z,1025.26
2023-02-28T09:58:34.958Z,1025.37
2023-02-28T09:59:34.948Z,1025.35
2023-02-28T10:00:34.952Z,1025.42
2023-02-28T10:01:35.080Z,1025.35
2023-02-28T10:02:34.942Z,1025.38
2023-02-28T10:03:35.585Z,1025.42
2023-02-28T10:04:35.016Z,1025.46
2023-02-28T10:05:34.931Z,1025.49
2023-02-28T10:06:34.897Z,1025.51
2023-02-28T10:07:34.888Z,1025.53
2023-02-28T10:08:34.891Z,1025.47
2023-02-28T10:09:34.870Z,1025.48
2023-02-28T10:10:34.865Z,1025.34
2023-02-28T10:11:34.859Z,1025.46
2023-02-28T10:12:34.846Z,1025.44
2023-02-28T10:13:34.852Z,1025.43
2023-02-28T10:14:34.833Z,1025.40
2023-02-28T10:15:34.845Z,1025.45
2023-02-28T10:16:34.825Z,1025.36
2023-02-28T10:17:44.258Z,1025.42
2023-02-28T10:18:34.794Z,1025.42
2023-02-28T10:19:34.786Z,1025.39
2023-02-28T10:20:34.801Z,1025.43
2023-02-28T10:21:34.787Z,1025.42
2023-02-28T10:22:34.760Z,1025.38
2023-02-28T10:23:34.801Z,1025.38
2023-02-28T10:24:34.745Z,1025.40
2023-02-28T10:25:34.736Z,1025.41
2023-02-28T10:26:34.728Z,1025.40
2023-02-28T10:27:34.725Z,1025.37
2023-02-28T10:28:34.711Z,1025.36
2023-02-28T10:29:34.701Z,1025.35
2023-02-28T10:30:34.705Z,1025.21
2023-02-28T10:31:34.719Z,1025.21
2023-02-28T10:32:34.679Z,1025.26
2023-02-28T10:33:34.673Z,1025.32
2023-02-28T10:34:34.666Z,1025.24
2023-02-28T10:35:34.655Z,1025.21
2023-02-28T10:36:36.223Z,1025.32
2023-02-28T10:37:34.703Z,1025.29
2023-02-28T10:38:34.671Z,1025.26
2023-02-28T10:39:34.628Z,1025.24
2023-02-28T10:40:34.673Z,1025.23
2023-02-28T10:41:34.602Z,1025.24
2023-02-28T10:42:34.594Z,1025.22
2023-02-28T10:43:34.590Z,1025.24
2023-02-28T10:44:34.583Z,1025.25
2023-02-28T10:45:34.570Z,1025.25
2023-02-28T10:46:34.619Z,1025.23
2023-02-28T10:47:34.556Z,1025.17
2023-02-28T10:48:34.554Z,1025.20
2023-02-28T10:49:34.557Z,1025.15
2023-02-28T10:50:34.580Z,1025.18
2023-02-28T10:51:34.557Z,1025.10
2023-02-28T10:52:34.523Z,1025.16
2023-02-28T10:53:44.819Z,1025.18
2023-02-28T10:54:34.507Z,1025.13
2023-02-28T10:55:34.501Z,1025.19
2023-02-28T10:56:34.848Z,1025.23
2023-02-28T10:57:34.488Z,1025.23
2023-02-28T10:58:34.467Z,1025.21
2023-02-28T10:59:34.460Z,1025.18
2023-02-28T11:00:34.448Z,1025.19
2023-02-28T11:01:34.930Z,1025.18
2023-02-28T11:03:34.417Z,1025.22
2023-02-28T11:04:34.448Z,1025.19
2023-02-28T11:05:34.413Z,1025.12
2023-02-28T11:06:34.401Z,1025.13
2023-02-28T11:07:50.496Z,1025.19
2023-02-28T11:08:34.381Z,1025.22
2023-02-28T11:09:34.388Z,1025.18
2023-02-28T11:10:34.382Z,1025.15
2023-02-28T11:11:34.353Z,1025.18
2023-02-28T11:12:37.816Z,1025.20
2023-02-28T11:13:34.333Z,1025.20
2023-02-28T11:14:34.328Z,1025.21
2023-02-28T11:15:34.325Z,1025.22
2023-02-28T11:16:34.313Z,1025.21
2023-02-28T11:17:34.301Z,1025.21
2023-02-28T11:18:34.295Z,1025.20
2023-02-28T11:19:34.288Z,1025.22
2023-02-28T11:20:34.283Z,1025.20
2023-02-28T11:21:34.269Z,1025.18
2023-02-28T11:22:34.265Z,1025.20
2023-02-28T11:23:35.958Z,1025.19
2023-02-28T11:24:34.264Z,1025.14
2023-02-28T11:25:34.257Z,1025.16
2023-02-28T11:26:34.234Z,1025.16
2023-02-28T11:27:34.220Z,1025.23
2023-02-28T11:28:34.223Z,1025.18
2023-02-28T11:29:34.220Z,1025.16
2023-02-28T11:30:34.198Z,1025.17
2023-02-28T11:31:34.234Z,1025.14
2023-02-28T11:32:34.332Z,1025.16
2023-02-28T11:33:34.170Z,1025.13
2023-02-28T11:34:34.178Z,1025.19
2023-02-28T11:35:34.246Z,1025.15
2023-02-28T11:36:34.159Z,1025.14
2023-02-28T11:37:34.137Z,1025.15
2023-02-28T11:38:34.132Z,1025.17
2023-02-28T11:39:34.122Z,1025.16
2023-02-28T11:40:34.120Z,1025.13
2023-02-28T11:41:34.130Z,1025.13
2023-02-28T11:42:34.102Z,1025.14
2023-02-28T11:43:34.092Z,1025.11
2023-02-28T11:44:34.088Z,1025.13
2023-02-28T11:45:34.079Z,1025.18
2023-02-28T11:46:34.116Z,1025.15
2023-02-28T11:47:34.067Z,1025.11
2023-02-28T11:48:34.054Z,1025.12
2023-02-28T11:49:34.040Z,1025.11
2023-02-28T11:50:34.051Z,1025.13
2023-02-28T11:51:34.029Z,1025.16
2023-02-28T11:52:34.019Z,1025.13
2023-02-28T11:53:34.454Z,1025.11
2023-02-28T11:54:34.035Z,1025.08
2023-02-28T11:55:34.026Z,1025.09
2023-02-28T11:56:34.063Z,1025.07
2023-02-28T11:57:34.147Z,1025.09
2023-02-28T11:58:34.060Z,1025.08
2023-02-28T11:59:34.055Z,1025.08
2023-02-28T12:00:34.022Z,1025.04
2023-02-28T12:01:34.026Z,1025.08
2023-02-28T12:02:34.049Z,1025.02
2023-02-28T12:03:34.109Z,1025.04
2023-02-28T12:04:33.997Z,1025.02
2023-02-28T12:05:33.956Z,1025.02
2023-02-28T12:06:33.953Z,1025.06